sensor_id;sensor_type;location;lat;lon;timestamp;P1;P2;P0
58740;PMS7003;44512;53.046;18.604;2022-09-29T00:03:27;13;12;9
58740;PMS7003;44512;53.046;18.604;2022-09-29T00:13:55;16;12;9
58740;PMS7003;44512;53.046;18.604;2022-09-29T00:24:23;17;14;10
58740;PMS7003;44512;53.046;18.604;2022-09-29T00:34:52;20;16;12
58740;PMS7003;44512;53.046;18.604;2022-09-29T00:45:21;20;15;12
58740;PMS7003;44512;53.046;18.604;2022-09-29T01:06:26;18;11;9
58740;PMS7003;44512;53.046;18.604;2022-09-29T01:16:45;17;14;11
58740;PMS7003;44512;53.046;18.604;2022-09-29T01:37:44;15;13;9
58740;PMS7003;44512;53.046;18.604;2022-09-29T01:48:20;14;11;8
58740;PMS7003;44512;53.046;18.604;2022-09-29T01:58:46;13;10;7
58740;PMS7003;44512;53.046;18.604;2022-09-29T02:09:08;14;12;8
58740;PMS7003;44512;53.046;18.604;2022-09-29T02:19:36;11;8;5
58740;PMS7003;44512;53.046;18.604;2022-09-29T02:30:04;13;11;8
58740;PMS7003;44512;53.046;18.604;2022-09-29T02:40:39;11;10;8
58740;PMS7003;44512;53.046;18.604;2022-09-29T03:01:30;11;10;8
58740;PMS7003;44512;53.046;18.604;2022-09-29T03:11:57;17;12;9
58740;PMS7003;44512;53.046;18.604;2022-09-29T03:22:26;17;15;10
58740;PMS7003;44512;53.046;18.604;2022-09-29T03:32:54;19;15;11
58740;PMS7003;44512;53.046;18.604;2022-09-29T03:43:23;21;19;13
58740;PMS7003;44512;53.046;18.604;2022-09-29T03:53:51;25;18;13
58740;PMS7003;44512;53.046;18.604;2022-09-29T04:04:19;27;19;13
58740;PMS7003;44512;53.046;18.604;2022-09-29T04:14:48;21;20;14
58740;PMS7003;44512;53.046;18.604;2022-09-29T04:25:16;26;22;14
58740;PMS7003;44512;53.046;18.604;2022-09-29T04:35:45;27;22;13
58740;PMS7003;44512;53.046;18.604;2022-09-29T04:46:13;24;21;14
58740;PMS7003;44512;53.046;18.604;2022-09-29T04:56:41;20;19;12
58740;PMS7003;44512;53.046;18.604;2022-09-29T05:07:10;23;19;13
58740;PMS7003;44512;53.046;18.604;2022-09-29T05:17:38;27;21;14
58740;PMS7003;44512;53.046;18.604;2022-09-29T05:28:07;26;19;12
58740;PMS7003;44512;53.046;18.604;2022-09-29T05:38:35;31;21;13
58740;PMS7003;44512;53.046;18.604;2022-09-29T05:49:03;20;18;13
58740;PMS7003;44512;53.046;18.604;2022-09-29T05:59:32;32;23;15
58740;PMS7003;44512;53.046;18.604;2022-09-29T06:10:00;29;23;15
58740;PMS7003;44512;53.046;18.604;2022-09-29T06:20:29;22;18;13
58740;PMS7003;44512;53.046;18.604;2022-09-29T06:30:58;28;20;13
58740;PMS7003;44512;53.046;18.604;2022-09-29T06:41:25;27;23;14
58740;PMS7003;44512;53.046;18.604;2022-09-29T06:51:54;24;20;13
58740;PMS7003;44512;53.046;18.604;2022-09-29T07:02:22;22;18;12
58740;PMS7003;44512;53.046;18.604;2022-09-29T07:12:50;24;19;12
58740;PMS7003;44512;53.046;18.604;2022-09-29T07:23:19;20;17;12
58740;PMS7003;44512;53.046;18.604;2022-09-29T07:33:48;23;19;11
58740;PMS7003;44512;53.046;18.604;2022-09-29T07:44:16;25;21;14
58740;PMS7003;44512;53.046;18.604;2022-09-29T07:54:44;23;20;12
58740;PMS7003;44512;53.046;18.604;2022-09-29T08:05:13;24;19;14
58740;PMS7003;44512;53.046;18.604;2022-09-29T08:15:41;22;19;13
58740;PMS7003;44512;53.046;18.604;2022-09-29T08:26:19;23;15;11
58740;PMS7003;44512;53.046;18.604;2022-09-29T08:36:38;25;15;12
58740;PMS7003;44512;53.046;18.604;2022-09-29T08:47:11;17;14;11
58740;PMS7003;44512;53.046;18.604;2022-09-29T08:57:34;17;14;11
58740;PMS7003;44512;53.046;18.604;2022-09-29T09:29:02;16;14;11
58740;PMS7003;44512;53.046;18.604;2022-09-29T09:39:32;21;17;10
58740;PMS7003;44512;53.046;18.604;2022-09-29T10:10:54;15;13;9
58740;PMS7003;44512;53.046;18.604;2022-09-29T10:42:22;11;9;7
58740;PMS7003;44512;53.046;18.604;2022-09-29T10:52:51;12;7;6
58740;PMS7003;44512;53.046;18.604;2022-09-29T11:03:16;9;8;6
58740;PMS7003;44512;53.046;18.604;2022-09-29T11:13:43;9;8;6
58740;PMS7003;44512;53.046;18.604;2022-09-29T11:34:43;15;13;10
58740;PMS7003;44512;53.046;18.604;2022-09-29T11:45:09;19;15;12
58740;PMS7003;44512;53.046;18.604;2022-09-29T12:16:34;14;14;10
58740;PMS7003;44512;53.046;18.604;2022-09-29T12:27:04;16;15;11
58740;PMS7003;44512;53.046;18.604;2022-09-29T12:58:33;17;14;10
58740;PMS7003;44512;53.046;18.604;2022-09-29T13:29:54;19;17;12
58740;PMS7003;44512;53.046;18.604;2022-09-29T13:50:53;17;14;10
58740;PMS7003;44512;53.046;18.604;2022-09-29T14:11:47;12;11;8
58740;PMS7003;44512;53.046;18.604;2022-09-29T14:32:45;10;8;6
58740;PMS7003;44512;53.046;18.604;2022-09-29T14:43:12;8;6;5
58740;PMS7003;44512;53.046;18.604;2022-09-29T15:04:11;8;8;7
58740;PMS7003;44512;53.046;18.604;2022-09-29T15:14:37;8;7;5
58740;PMS7003;44512;53.046;18.604;2022-09-29T15:35:33;14;11;8
58740;PMS7003;44512;53.046;18.604;2022-09-29T15:46:02;11;10;8
58740;PMS7003;44512;53.046;18.604;2022-09-29T15:56:30;14;11;8
58740;PMS7003;44512;53.046;18.604;2022-09-29T16:06:58;13;13;9
58740;PMS7003;44512;53.046;18.604;2022-09-29T16:17:26;15;13;10
58740;PMS7003;44512;53.046;18.604;2022-09-29T16:27:55;16;15;11
58740;PMS7003;44512;53.046;18.604;2022-09-29T16:38:28;17;12;9
58740;PMS7003;44512;53.046;18.604;2022-09-29T16:54:04;28;23;17
58740;PMS7003;44512;53.046;18.604;2022-09-29T17:04:32;20;19;15
58740;PMS7003;44512;53.046;18.604;2022-09-29T17:15:00;19;18;14
58740;PMS7003;44512;53.046;18.604;2022-09-29T17:25:30;23;20;15
58740;PMS7003;44512;53.046;18.604;2022-09-29T17:35:57;19;15;12
58740;PMS7003;44512;53.046;18.604;2022-09-29T17:46:26;24;18;13
58740;PMS7003;44512;53.046;18.604;2022-09-29T17:56:54;22;19;14
58740;PMS7003;44512;53.046;18.604;2022-09-29T18:07:22;34;24;18
58740;PMS7003;44512;53.046;18.604;2022-09-29T18:17:55;36;28;19
58740;PMS7003;44512;53.046;18.604;2022-09-29T18:28:19;26;22;16
58740;PMS7003;44512;53.046;18.604;2022-09-29T18:38:48;29;22;18
58740;PMS7003;44512;53.046;18.604;2022-09-29T18:49:16;29;24;17
58740;PMS7003;44512;53.046;18.604;2022-09-29T18:59:44;25;22;17
58740;PMS7003;44512;53.046;18.604;2022-09-29T19:10:13;31;23;16
58740;PMS7003;44512;53.046;18.604;2022-09-29T19:20:41;36;27;20
58740;PMS7003;44512;53.046;18.604;2022-09-29T19:31:11;37;31;22
58740;PMS7003;44512;53.046;18.604;2022-09-29T19:41:38;43;34;23
58740;PMS7003;44512;53.046;18.604;2022-09-29T19:52:07;47;35;24
58740;PMS7003;44512;53.046;18.604;2022-09-29T20:02:35;59;46;31
58740;PMS7003;44512;53.046;18.604;2022-09-29T20:13:03;62;47;32
58740;PMS7003;44512;53.046;18.604;2022-09-29T20:23:32;59;48;32
58740;PMS7003;44512;53.046;18.604;2022-09-29T20:34:00;58;44;29
58740;PMS7003;44512;53.046;18.604;2022-09-29T20:44:29;59;45;31
58740;PMS7003;44512;53.046;18.604;2022-09-29T20:55:01;53;42;29
58740;PMS7003;44512;53.046;18.604;2022-09-29T21:05:26;57;44;30
58740;PMS7003;44512;53.046;18.604;2022-09-29T21:15:58;51;41;27
58740;PMS7003;44512;53.046;18.604;2022-09-29T21:26:23;57;45;29
58740;PMS7003;44512;53.046;18.604;2022-09-29T21:36:51;52;42;28
58740;PMS7003;44512;53.046;18.604;2022-09-29T21:47:19;49;40;26
58740;PMS7003;44512;53.046;18.604;2022-09-29T21:57:48;55;40;27
58740;PMS7003;44512;53.046;18.604;2022-09-29T22:08:16;52;41;28
58740;PMS7003;44512;53.046;18.604;2022-09-29T22:18:45;52;38;26
58740;PMS7003;44512;53.046;18.604;2022-09-29T22:29:13;54;42;27
58740;PMS7003;44512;53.046;18.604;2022-09-29T22:39:42;47;35;24
58740;PMS7003;44512;53.046;18.604;2022-09-29T22:50:10;55;43;29
58740;PMS7003;44512;53.046;18.604;2022-09-29T23:00:39;51;40;26
58740;PMS7003;44512;53.046;18.604;2022-09-29T23:11:12;62;44;30
58740;PMS7003;44512;53.046;18.604;2022-09-29T23:21:36;56;42;28
58740;PMS7003;44512;53.046;18.604;2022-09-29T23:32:04;52;41;27
58740;PMS7003;44512;53.046;18.604;2022-09-29T23:42:33;48;38;26
58740;PMS7003;44512;53.046;18.604;2022-09-29T23:53:01;48;39;26
